Excelsior Estates, Missouri
Current Conditions -  °F | °C
As of 12:35 AM on Saturday 20 Dec 2014 (Local Time) from KGPH Reporting Station
Haze Haze  
Wind Chill: 32°   Ceiling: 300
Heat Index: 32°   Visibility: 1.2mi
Dew Point: 32°   Wind: 3mph
Humidity: 100%   Direction: 280°W
Pressure: 30.22"   Gusts: NA
Location:  39.3039°N, 94.2206°W
Report Text: KGPH 200635Z AUTO 28003KT 1 1/4SM BR OVC003 00/00 A3022 RMK AO2
Loading
Personal Weather Stations






























Interactive Weather Map New forecast layout! Learn more

10-Day Weather Forecast

Advertisements
Track Severe Weather on mobile